Time;durP1;ratioP1;P1;durP2;ratioP2;P2;SDS_P1;SDS_P2;PMS_P1;PMS_P2;Temp;Humidity;BMP_temperature;BMP_pressure;BME280_temperature;BME280_humidity;BME280_pressure;Samples;Min_cycle;Max_cycle;Signal;HPM_P1;HPM_P2
2023/07/05 00:04:10;;;;;;;8.35;4.75;;;17.20;99.90;;;18.15;66.87;97560.03;10356653;28;20717;-65
2023/07/05 00:09:13;;;;;;;6.30;5.05;;;17.30;99.90;;;18.15;67.31;97552.28;10356563;28;20288;-65
2023/07/05 00:14:18;;;;;;;5.40;4.72;;;17.20;99.90;;;17.94;68.05;97537.13;10360809;28;20697;-65
2023/07/05 00:19:21;;;;;;;6.03;5.53;;;17.00;99.90;;;17.91;67.88;97532.78;10359008;28;20230;-65
2023/07/05 00:24:24;;;;;;;5.57;5.07;;;16.90;99.90;;;17.80;69.11;97526.50;10359455;28;20237;-65
2023/07/05 00:29:29;;;;;;;5.93;5.13;;;16.90;99.90;;;17.69;70.20;97510.69;10363140;28;20577;-65
2023/07/05 00:34:32;;;;;;;5.70;5.20;;;16.80;99.90;;;17.78;70.70;97520.41;10361038;28;20931;-65
2023/07/05 00:39:35;;;;;;;5.55;5.05;;;16.90;99.90;;;17.88;70.54;97506.84;10353509;28;20319;-64
2023/07/05 00:44:40;;;;;;;5.38;4.88;;;17.00;99.90;;;17.78;71.45;97515.22;10363160;28;20225;-64
2023/07/05 00:49:43;;;;;;;5.72;5.15;;;16.90;99.90;;;17.72;71.94;97496.97;10361059;28;20230;-64
2023/07/05 00:54:51;;;;;;;5.20;4.80;;;16.80;99.90;;;17.69;72.86;97507.25;10353611;28;20230;-64
2023/07/05 01:00:03;;;;;;;4.82;4.40;;;16.80;99.90;;;17.65;73.12;97500.22;10360041;28;20237;-64
2023/07/05 01:05:08;;;;;;;5.20;4.78;;;16.80;99.90;;;17.66;73.56;97495.13;10361730;28;20607;-64
2023/07/05 01:10:18;;;;;;;5.63;5.07;;;16.80;99.90;;;17.56;73.51;97481.09;10362448;28;20238;-64
2023/07/05 01:15:31;;;;;;;5.30;4.60;;;16.60;99.90;;;17.53;74.19;97483.59;10364139;28;20579;-65
2023/07/05 01:20:42;;;;;;;5.38;4.88;;;16.60;99.90;;;17.49;75.09;97465.41;10358529;28;20757;-65
2023/07/05 01:26:36;;;;;;;5.22;4.68;;;16.60;99.90;;;17.53;75.45;97470.69;10360460;28;20604;-65
2023/07/05 01:31:55;;;;;;;5.43;4.93;;;16.60;99.90;;;17.40;75.53;97450.56;10348586;28;20215;-65
2023/07/05 01:36:59;;;;;;;4.88;4.47;;;16.40;99.90;;;17.24;76.14;97445.88;10356121;28;20702;-65
2023/07/05 01:42:05;;;;;;;5.07;4.57;;;16.20;99.90;;;17.02;76.92;97455.66;10359164;28;20238;-65
2023/07/05 01:47:17;;;;;;;5.60;5.07;;;16.20;99.90;;;17.08;77.53;97449.78;10360555;28;20264;-65
2023/07/05 01:52:28;;;;;;;5.32;4.88;;;16.20;99.90;;;17.18;77.33;97449.19;10353475;28;20234;-65
2023/07/05 01:57:37;;;;;;;5.43;4.50;;;16.30;99.90;;;17.27;77.07;97448.53;10358335;28;20276;-65
2023/07/05 02:02:46;;;;;;;4.80;4.43;;;16.40;99.90;;;17.33;77.53;97457.28;10353327;28;20223;-66
2023/07/05 02:07:51;;;;;;;5.00;4.60;;;16.40;99.90;;;17.28;77.68;97450.25;10360719;28;20225;-66
2023/07/05 02:12:58;;;;;;;5.20;4.63;;;16.30;99.90;;;17.09;78.52;97454.13;10354838;28;20753;-65
2023/07/05 02:18:03;;;;;;;6.30;4.97;;;16.20;99.90;;;17.20;78.13;97449.22;10357929;28;20678;-63
2023/07/05 02:23:06;;;;;;;4.90;4.40;;;16.30;99.90;;;17.30;78.48;97458.94;10305154;28;20223;-65
2023/07/05 02:28:10;;;;;;;5.28;4.88;;;16.50;99.90;;;17.38;78.16;97451.38;10314148;28;20237;-65
2023/07/05 02:33:14;;;;;;;6.35;5.13;;;16.50;99.90;;;17.34;78.13;97450.44;10315228;28;21474;-65
2023/07/05 02:38:18;;;;;;;5.78;5.15;;;16.40;99.90;;;17.30;78.15;97458.94;10315740;28;20267;-65
2023/07/05 02:43:21;;;;;;;5.38;4.68;;;16.40;99.90;;;16.77;90.13;97456.75;10310738;28;20227;-64
2023/07/05 02:48:25;;;;;;;5.45;4.90;;;16.20;99.90;;;16.47;96.96;97448.16;10310877;28;20554;-64
2023/07/05 02:53:28;;;;;;;4.63;4.22;;;16.00;99.90;;;16.49;100.00;97447.38;10315219;28;20584;-65
2023/07/05 02:58:31;;;;;;;7.07;5.30;;;16.00;99.90;;;16.54;100.00;97463.84;10305975;28;20282;-65
2023/07/05 03:03:36;;;;;;;6.25;5.50;;;16.00;99.90;;;16.61;100.00;97486.41;10304780;28;20237;-65
2023/07/05 03:08:39;;;;;;;6.45;5.85;;;16.10;99.90;;;16.52;100.00;97501.63;10314490;28;20227;-65
2023/07/05 03:13:42;;;;;;;6.65;5.93;;;15.90;99.90;;;16.51;100.00;97510.22;10317794;28;20215;-65
2023/07/05 03:18:47;;;;;;;6.53;6.03;;;15.80;99.90;;;16.35;100.00;97500.28;10317632;28;20281;-65
2023/07/05 03:23:50;;;;;;;6.50;5.82;;;15.80;99.90;;;16.46;100.00;97511.78;10318813;28;20909;-65
2023/07/05 03:28:53;;;;;;;5.30;4.75;;;15.80;99.90;;;16.56;100.00;97526.69;10313344;28;20334;-65
2023/07/05 03:33:58;;;;;;;6.07;5.38;;;15.90;99.90;;;16.67;100.00;97543.34;10307249;28;20235;-65
2023/07/05 03:39:01;;;;;;;6.20;5.55;;;16.00;99.90;;;16.86;100.00;97569.72;10313988;28;20318;-65
2023/07/05 03:44:05;;;;;;;6.90;6.20;;;16.10;99.90;;;16.87;100.00;97576.63;10310862;28;20239;-66
2023/07/05 03:49:09;;;;;;;6.80;6.10;;;16.10;99.90;;;16.69;100.00;97581.25;10308518;28;20237;-65
2023/07/05 03:54:12;;;;;;;6.68;5.93;;;16.00;99.90;;;16.60;100.00;97574.97;10318012;28;20234;-65
2023/07/05 03:59:15;;;;;;;7.35;5.80;;;16.00;99.90;;;16.55;100.00;97568.81;10311178;28;20231;-65
2023/07/05 04:04:20;;;;;;;6.63;5.93;;;16.00;99.90;;;16.53;100.00;97565.28;10319233;28;20262;-66
2023/07/05 04:09:23;;;;;;;5.88;5.38;;;16.00;99.90;;;16.52;100.00;97558.41;10313132;28;20315;-66
2023/07/05 04:14:26;;;;;;;5.85;5.35;;;16.00;99.90;;;16.58;100.00;97558.56;10316262;28;20234;-66
2023/07/05 04:19:31;;;;;;;5.00;4.60;;;16.00;99.90;;;16.58;100.00;97558.56;10317811;28;20231;-65
2023/07/05 04:24:34;;;;;;;4.75;4.30;;;16.00;99.90;;;16.63;100.00;97545.81;10322532;28;20234;-65
2023/07/05 04:29:37;;;;;;;5.07;4.50;;;16.10;99.90;;;16.78;100.00;97545.38;10316376;28;20226;-65
2023/07/05 04:34:41;;;;;;;4.35;3.95;;;16.20;99.90;;;17.22;100.00;97538.81;10318328;28;20234;-65
2023/07/05 04:39:45;;;;;;;5.15;4.00;;;16.60;99.90;;;17.35;100.00;97545.19;10319439;28;20237;-65
2023/07/05 04:44:48;;;;;;;4.22;3.83;;;16.70;99.90;;;17.43;100.00;97554.00;10317748;28;20227;-66
2023/07/05 04:49:52;;;;;;;4.75;4.25;;;16.80;99.90;;;17.50;100.00;97552.44;10319593;28;20238;-66
2023/07/05 04:54:55;;;;;;;4.32;3.90;;;16.90;99.90;;;17.53;100.00;97550.78;10317534;28;20230;-65
2023/07/05 05:00:04;;;;;;;4.00;3.40;;;16.90;99.90;;;17.67;100.00;97543.38;10319072;28;20317;-65
2023/07/05 05:05:10;;;;;;;5.35;4.82;;;17.00;99.90;;;17.78;100.00;97541.97;10364810;28;20230;-65
2023/07/05 05:10:13;;;;;;;6.07;5.55;;;17.20;99.90;;;17.81;100.00;97541.16;10360480;28;20256;-65
2023/07/05 05:15:16;;;;;;;6.93;6.30;;;17.10;99.90;;;17.57;100.00;97546.59;10364092;28;20234;-66
2023/07/05 05:20:21;;;;;;;7.82;6.72;;;16.80;99.90;;;17.51;100.00;97536.97;10356282;28;20237;-66
2023/07/05 05:25:24;;;;;;;5.93;4.85;;;16.80;99.90;;;17.50;100.00;97529.19;10362095;28;20230;-65
2023/07/05 05:30:27;;;;;;;4.35;3.95;;;16.80;99.90;;;17.60;100.00;97514.75;10357956;28;20244;-65
2023/07/05 05:35:34;;;;;;;5.43;4.00;;;17.00;99.90;;;18.35;100.00;97508.72;10365036;28;20693;-65
2023/07/05 05:40:38;;;;;;;5.90;5.40;;;17.80;99.90;;;19.73;100.00;97496.56;10360599;28;20233;-65
2023/07/05 05:45:42;;;;;;;3.55;3.30;;;19.30;99.90;;;20.35;95.22;97505.22;10358265;28;20230;-65
2023/07/05 05:50:47;;;;;;;3.55;3.00;;;19.60;99.90;;;19.99;95.26;97498.69;10359841;28;20307;-65
2023/07/05 05:55:50;;;;;;;3.47;3.17;;;19.20;99.90;;;19.72;96.03;97502.63;10352287;28;20701;-65
2023/07/05 06:00:53;;;;;;;2.90;2.70;;;19.00;99.90;;;19.84;98.34;97519.22;10349345;28;20245;-65
2023/07/05 06:05:59;;;;;;;2.80;2.60;;;19.10;99.90;;;20.20;99.32;97514.56;10357539;28;20710;-65
2023/07/05 06:11:04;;;;;;;2.88;2.67;;;19.40;99.90;;;20.35;96.95;97513.88;10355165;28;20608;-65
2023/07/05 06:16:07;;;;;;;2.90;2.70;;;19.50;99.90;;;20.67;94.11;97503.91;10357367;28;20737;-64
2023/07/05 06:21:18;;;;;;;3.00;2.70;;;19.80;99.90;;;20.94;92.80;97507.66;10345321;28;20253;-65
2023/07/05 06:26:21;;;;;;;2.83;2.60;;;19.90;99.90;;;21.03;91.93;97515.56;10355337;28;20237;-64
2023/07/05 06:31:33;;;;;;;2.60;2.40;;;20.00;99.90;;;21.20;87.06;97523.50;10355553;28;20234;-65
2023/07/05 06:36:37;;;;;;;2.47;2.28;;;20.10;99.90;;;21.35;81.64;97535.81;10360661;28;20631;-65
2023/07/05 06:41:41;;;;;;;2.30;2.10;;;20.20;99.90;;;21.41;82.60;97529.81;10360097;28;20233;-65
2023/07/05 06:46:44;;;;;;;3.30;2.45;;;20.40;99.90;;;21.71;81.86;97542.19;10355013;28;20241;-65
2023/07/05 06:51:48;;;;;;;2.90;2.60;;;20.70;99.90;;;21.85;80.07;97535.38;10359465;28;20785;-65
2023/07/05 06:56:51;;;;;;;3.03;2.75;;;20.70;99.90;;;22.09;78.11;97555.50;10351298;28;20231;-65
2023/07/05 07:01:54;;;;;;;2.65;2.45;;;21.00;99.90;;;22.16;76.32;97546.84;10358603;28;20227;-65
2023/07/05 07:06:59;;;;;;;3.05;2.60;;;21.00;99.90;;;22.79;71.56;97556.75;10352803;28;20258;-65
2023/07/05 07:12:02;;;;;;;3.92;2.42;;;21.80;99.90;;;23.55;67.37;97562.19;10350632;28;20310;-66
2023/07/05 07:17:06;;;;;;;2.72;2.53;;;22.70;99.90;;;23.87;65.60;97550.91;10354595;28;20230;-66
2023/07/05 07:22:10;;;;;;;2.78;2.58;;;22.90;99.90;;;23.87;65.03;97539.59;10359802;28;20230;-65
2023/07/05 07:27:15;;;;;;;2.85;2.55;;;22.90;99.90;;;23.68;63.35;97550.00;10359735;28;20265;-65
2023/07/05 07:32:18;;;;;;;3.03;2.80;;;22.80;99.90;;;23.42;63.66;97577.81;10356620;28;20240;-66
2023/07/05 07:37:23;;;;;;;4.63;2.30;;;22.50;99.90;;;21.82;79.37;97597.81;10367039;28;20618;-64
2023/07/05 07:42:26;;;;;;;2.92;2.40;;;21.00;99.90;;;20.20;92.57;97631.34;10362244;28;20629;-65
2023/07/05 07:47:29;;;;;;;3.05;2.53;;;19.50;99.90;;;19.29;100.00;97644.44;10363051;28;20237;-65
2023/07/05 07:52:34;;;;;;;3.10;2.75;;;18.60;99.90;;;18.89;100.00;97654.00;10361623;28;20317;-65
2023/07/05 07:57:37;;;;;;;2.50;2.28;;;18.10;99.90;;;18.69;100.00;97639.72;10362541;28;20241;-65
2023/07/05 08:02:41;;;;;;;2.85;2.60;;;18.00;99.90;;;18.45;100.00;97650.41;10365643;28;20225;-65
2023/07/05 08:07:46;;;;;;;3.05;2.85;;;17.90;99.90;;;18.86;100.00;97648.75;10365518;28;20245;-65
2023/07/05 08:12:49;;;;;;;3.65;2.70;;;18.30;99.90;;;19.48;100.00;97661.19;10365336;28;20229;-65
2023/07/05 08:17:53;;;;;;;4.10;2.53;;;18.80;99.90;;;19.82;100.00;97656.66;10361054;28;20231;-65
2023/07/05 08:22:57;;;;;;;3.38;2.65;;;19.00;99.90;;;19.74;100.00;97669.50;10362589;28;20230;-65
2023/07/05 08:28:01;;;;;;;2.70;2.50;;;19.10;99.90;;;19.82;100.00;97676.53;10361773;28;20234;-65
2023/07/05 08:33:04;;;;;;;2.85;2.50;;;19.00;99.90;;;19.86;100.00;97673.13;10362733;28;20226;-64
2023/07/05 08:38:09;;;;;;;2.92;2.10;;;19.10;99.90;;;19.76;100.00;97675.59;10361043;28;20237;-65
2023/07/05 08:43:26;;;;;;;2.50;2.28;;;19.10;99.90;;;19.72;100.00;97685.88;10351436;28;20285;-64
2023/07/05 08:48:32;;;;;;;2.80;2.15;;;19.10;99.90;;;19.52;100.00;97688.09;10355503;28;20264;-65
2023/07/05 08:53:47;;;;;;;3.88;2.70;;;18.80;99.90;;;19.29;100.00;97721.31;10355518;28;20232;-65
2023/07/05 08:58:57;;;;;;;3.88;3.17;;;18.50;99.90;;;18.73;100.00;97734.75;10354400;28;20218;-65
2023/07/05 09:04:00;;;;;;;3.72;3.35;;;18.10;99.90;;;18.43;100.00;97732.34;10354370;28;20604;-65
2023/07/05 09:09:25;;;;;;;4.82;3.30;;;17.80;99.90;;;18.20;100.00;97736.94;10352713;28;20313;-65
2023/07/05 09:14:41;;;;;;;3.67;3.03;;;17.60;99.90;;;18.08;100.00;97744.38;10360709;28;20237;-65
2023/07/05 09:19:57;;;;;;;3.40;3.08;;;17.50;99.90;;;18.28;100.00;97742.28;10360392;28;20325;-62
2023/07/05 09:25:02;;;;;;;3.92;3.15;;;17.60;99.90;;;18.24;100.00;97749.97;10363645;28;20249;-64
2023/07/05 09:30:11;;;;;;;3.97;3.67;;;17.70;99.90;;;18.07;100.00;97760.75;10349593;28;20239;-65
2023/07/05 09:35:19;;;;;;;4.22;3.55;;;17.60;99.90;;;17.79;100.00;97760.00;10356226;28;20242;-64
2023/07/05 09:40:29;;;;;;;4.40;4.03;;;17.30;99.90;;;18.12;100.00;97775.56;10359901;28;20778;-65
2023/07/05 09:45:32;;;;;;;4.55;4.15;;;17.70;99.90;;;18.43;100.00;97760.81;10357466;28;20234;-64
2023/07/05 09:50:36;;;;;;;4.93;4.43;;;17.90;99.90;;;18.62;100.00;97764.69;10354554;28;20234;-64
2023/07/05 09:56:03;;;;;;;4.45;4.10;;;18.20;99.90;;;19.12;100.00;97760.72;10359204;28;20238;-65
2023/07/05 10:01:11;;;;;;;4.97;4.53;;;18.60;99.90;;;19.53;100.00;97760.69;10356315;28;20257;-64
2023/07/05 10:06:19;;;;;;;5.00;4.50;;;19.10;99.90;;;20.12;100.00;97747.16;10356725;28;20254;-66
2023/07/05 10:11:27;;;;;;;5.13;4.38;;;19.70;99.90;;;20.28;100.00;97757.78;10353659;28;20694;-66
2023/07/05 10:16:50;;;;;;;4.75;4.35;;;20.00;99.90;;;20.38;100.00;97757.09;10357705;28;20693;-64
2023/07/05 10:22:01;;;;;;;5.20;4.70;;;20.00;99.90;;;20.30;100.00;97761.28;10359227;28;20550;-64
2023/07/05 10:27:25;;;;;;;4.82;4.40;;;19.80;99.90;;;20.74;100.00;97759.41;10356833;28;20768;-65
2023/07/05 10:32:29;;;;;;;4.50;4.10;;;20.30;99.90;;;20.90;100.00;97766.59;10360097;28;20309;-65
2023/07/05 10:37:36;;;;;;;4.90;4.50;;;20.60;99.90;;;21.16;100.00;97766.09;10351669;28;20237;-65
2023/07/05 10:42:46;;;;;;;5.05;4.43;;;20.90;99.90;;;21.34;97.85;97748.13;10348371;28;20226;-65
2023/07/05 10:47:52;;;;;;;4.55;3.92;;;21.10;99.90;;;21.40;100.00;97742.16;10355615;28;20245;-62
2023/07/05 10:53:03;;;;;;;4.13;3.72;;;21.20;99.90;;;21.65;95.93;97747.66;10316317;28;20250;-66
2023/07/05 10:58:14;;;;;;;3.42;3.13;;;21.50;99.90;;;21.76;81.61;97748.66;10312711;28;20659;-66
2023/07/05 11:03:40;;;;;;;3.80;3.50;;;21.70;99.90;;;22.05;84.27;97749.84;10319291;28;20254;-66
2023/07/05 11:08:45;;;;;;;3.42;3.13;;;21.90;99.90;;;22.27;74.52;97745.75;10313397;28;20223;-65
2023/07/05 11:13:51;;;;;;;5.95;3.40;;;22.10;99.90;;;22.65;80.12;97744.31;10315173;28;20230;-64
2023/07/05 11:19:06;;;;;;;4.05;3.65;;;22.30;99.90;;;22.66;73.08;97746.03;10316995;28;20317;-65
2023/07/05 11:24:10;;;;;;;4.00;3.60;;;22.20;99.90;;;22.90;66.21;97738.41;10314669;28;20626;-66
2023/07/05 11:29:48;;;;;;;4.05;3.00;;;22.40;99.90;;;23.00;55.17;97736.75;10315853;28;20313;-66
2023/07/05 11:34:54;;;;;;;3.53;3.22;;;22.60;97.70;;;23.00;49.02;97728.91;10317734;28;20726;-65
2023/07/05 11:39:57;;;;;;;3.08;2.88;;;22.70;93.20;;;22.93;45.77;97728.00;10311493;28;20839;-66
2023/07/05 11:45:23;;;;;;;3.20;2.92;;;22.50;90.80;;;23.03;47.22;97728.94;10316874;28;20227;-67
2023/07/05 11:50:28;;;;;;;3.45;3.22;;;22.70;92.30;;;23.31;43.55;97731.69;10315263;28;20222;-66
2023/07/05 11:55:36;;;;;;;4.28;3.88;;;22.90;86.90;;;23.18;48.45;97725.56;10313596;28;20246;-66
2023/07/05 12:00:45;;;;;;;4.35;3.95;;;22.60;92.90;;;23.40;48.92;97723.91;10315302;28;20231;-67
2023/07/05 12:05:55;;;;;;;4.45;4.05;;;22.90;92.90;;;23.60;47.79;97723.97;10318396;28;20797;-68
2023/07/05 12:11:00;;;;;;;4.75;4.10;;;23.00;92.50;;;23.45;47.02;97724.78;10319701;28;20250;-63
2023/07/05 12:16:09;;;;;;;4.47;4.07;;;22.80;91.80;;;23.54;46.45;97745.69;10308509;28;20246;-66
2023/07/05 12:21:13;;;;;;;4.32;3.92;;;22.90;91.20;;;23.92;43.97;97754.53;10318973;28;20237;-66
2023/07/05 12:26:24;;;;;;;4.43;4.03;;;23.30;88.80;;;23.80;43.30;97747.56;10312761;28;20234;-67
2023/07/05 12:31:29;;;;;;;3.63;3.33;;;23.20;86.50;;;23.45;42.30;97739.59;10317264;28;20241;-65
2023/07/05 12:36:41;;;;;;;4.43;3.65;;;22.90;84.80;;;23.64;43.23;97733.56;10317164;28;20695;-65
2023/07/05 12:41:58;;;;;;;3.95;3.55;;;23.10;86.20;;;23.79;42.14;97740.59;10314790;28;20321;-67
2023/07/05 12:47:17;;;;;;;3.15;2.83;;;23.20;84.00;;;23.67;40.82;97736.19;10323167;28;20446;-66
2023/07/05 12:52:23;;;;;;;4.03;3.30;;;23.10;82.10;;;23.81;41.14;97736.25;10319566;28;20278;-66
2023/07/05 12:57:32;;;;;;;3.80;3.35;;;23.20;82.40;;;23.82;40.05;97735.38;10324665;28;20694;-65
2023/07/05 13:02:36;;;;;;;3.28;2.85;;;23.20;82.30;;;23.52;41.49;97730.91;10321677;28;20234;-66
2023/07/05 13:07:41;;;;;;;3.20;3.00;;;22.90;82.80;;;23.82;40.46;97733.63;10321640;28;20765;-66
2023/07/05 13:12:50;;;;;;;3.53;2.70;;;23.20;81.60;;;23.77;40.89;97737.09;10313220;28;20234;-65
2023/07/05 13:17:55;;;;;;;3.30;3.00;;;23.20;81.50;;;23.76;40.71;97740.59;10320608;28;20234;-66
2023/07/05 13:22:58;;;;;;;3.22;2.92;;;23.10;82.20;;;23.36;40.54;97741.28;10322117;28;20235;-66
2023/07/05 13:28:03;;;;;;;3.55;3.00;;;22.80;80.90;;;23.30;40.65;97753.44;10353606;28;20239;-66
2023/07/05 13:33:13;;;;;;;3.13;2.88;;;22.70;80.60;;;23.51;40.13;97744.81;10349396;28;20226;-67
2023/07/05 13:38:18;;;;;;;4.40;3.00;;;22.80;80.60;;;23.29;39.40;97759.50;10359590;28;20239;-66
2023/07/05 13:43:21;;;;;;;3.72;2.75;;;22.70;78.50;;;23.33;40.13;97758.66;10361024;28;20226;-66
2023/07/05 13:48:25;;;;;;;2.78;2.58;;;22.70;79.30;;;23.19;38.74;97763.81;10357504;28;20620;-64
2023/07/05 13:53:31;;;;;;;3.03;2.72;;;22.50;77.70;;;23.13;39.32;97761.16;10359940;28;20226;-66
2023/07/05 13:58:34;;;;;;;3.58;2.63;;;22.50;78.20;;;23.20;38.21;97768.16;10360155;28;20238;-65
2023/07/05 14:03:38;;;;;;;3.33;2.40;;;22.50;76.40;;;23.11;38.20;97766.34;10359216;28;20229;-66
2023/07/05 14:09:02;;;;;;;2.88;2.42;;;22.40;76.20;;;23.43;38.40;97767.41;10358031;28;20520;-66
2023/07/05 14:14:06;;;;;;;3.40;2.70;;;22.80;76.40;;;23.52;37.49;97759.59;10354374;28;20227;-66
2023/07/05 14:19:11;;;;;;;3.53;2.63;;;22.80;75.10;;;23.41;38.63;97766.50;10352288;28;20222;-66
2023/07/05 14:24:16;;;;;;;4.10;2.80;;;22.80;77.70;;;23.47;37.46;97757.00;10361584;28;20233;-66
2023/07/05 14:29:19;;;;;;;3.08;2.38;;;22.90;74.70;;;23.23;37.22;97749.03;10360173;28;20238;-66
2023/07/05 14:34:24;;;;;;;4.43;3.13;;;22.60;74.00;;;23.14;36.96;97761.16;10355193;28;20769;-66
2023/07/05 14:39:27;;;;;;;3.28;2.72;;;22.60;73.40;;;23.27;37.86;97763.84;10355668;28;20238;-66
2023/07/05 14:44:31;;;;;;;2.50;2.30;;;22.60;75.20;;;23.36;37.31;97769.97;10347471;28;20226;-66
2023/07/05 14:49:36;;;;;;;3.15;2.50;;;22.70;74.30;;;23.23;36.82;97767.28;10353738;28;20232;-66
2023/07/05 14:54:39;;;;;;;2.63;2.20;;;22.60;73.40;;;23.23;39.95;97769.91;10353626;28;20221;-66
2023/07/05 14:59:42;;;;;;;3.67;2.50;;;22.60;78.30;;;23.31;38.58;97774.28;10353331;28;20237;-66
2023/07/05 15:04:46;;;;;;;2.78;2.45;;;22.60;76.90;;;23.34;38.00;97768.22;10345620;28;20222;-65
2023/07/05 15:09:49;;;;;;;2.83;2.28;;;22.60;74.90;;;23.39;37.32;97769.13;10352635;28;20237;-65
2023/07/05 15:14:53;;;;;;;2.80;2.17;;;22.70;73.90;;;23.48;36.26;97757.84;10349659;28;20222;-65
2023/07/05 15:19:57;;;;;;;3.13;2.50;;;22.80;72.50;;;23.52;36.39;97763.09;10351867;28;20233;-65
2023/07/05 15:25:00;;;;;;;2.60;2.40;;;22.90;72.40;;;23.72;36.62;97750.16;10341670;28;20230;-66
2023/07/05 15:30:05;;;;;;;2.58;2.38;;;23.00;72.80;;;23.90;36.12;97761.53;10348745;28;20237;-66
2023/07/05 15:35:13;;;;;;;2.75;2.38;;;23.20;72.60;;;23.76;36.70;97757.13;10348437;28;20308;-66
2023/07/05 15:40:17;;;;;;;2.35;2.00;;;23.10;73.50;;;23.63;36.49;97744.00;10349595;28;20288;-65
2023/07/05 15:45:25;;;;;;;3.22;2.80;;;22.90;72.70;;;23.84;37.42;97770.22;10353903;28;20233;-66
2023/07/05 15:50:29;;;;;;;3.05;2.55;;;23.10;74.50;;;23.53;37.04;97769.19;10352202;28;20288;-66
2023/07/05 15:55:33;;;;;;;2.65;2.45;;;22.80;73.80;;;23.52;37.39;97764.81;10360881;28;20927;-66
2023/07/05 16:00:37;;;;;;;3.47;2.67;;;22.70;73.80;;;23.29;36.79;97770.81;10359412;28;20790;-65
2023/07/05 16:05:43;;;;;;;3.55;2.83;;;22.60;72.70;;;23.55;38.07;97765.72;10363155;28;20232;-66
2023/07/05 16:10:46;;;;;;;2.65;2.45;;;22.80;75.40;;;23.53;37.07;97770.06;10358986;28;20233;-66
2023/07/05 16:15:56;;;;;;;2.65;2.33;;;22.80;73.10;;;23.46;37.40;97765.66;10359755;28;20226;-65
2023/07/05 16:21:00;;;;;;;3.03;2.83;;;22.70;73.80;;;23.64;37.31;97771.84;10361656;28;20729;-64
2023/07/05 16:26:06;;;;;;;3.28;2.45;;;22.90;74.50;;;23.49;37.07;97783.06;10361784;28;20230;-65
2023/07/05 16:31:09;;;;;;;3.55;2.65;;;22.80;73.00;;;23.26;37.63;97791.66;10356456;28;20226;-66
2023/07/05 16:36:15;;;;;;;2.95;2.75;;;22.50;74.20;;;23.31;37.88;97795.16;10361171;28;20226;-66
2023/07/05 16:41:18;;;;;;;3.22;2.38;;;22.50;74.60;;;23.25;38.73;97802.09;10359784;28;20241;-66
2023/07/05 16:46:23;;;;;;;2.75;2.47;;;22.40;75.80;;;23.36;37.27;97796.06;10357603;28;20219;-66
2023/07/05 16:51:28;;;;;;;3.03;2.72;;;22.50;73.60;;;23.11;38.20;97807.22;10350632;28;20630;-66
2023/07/05 16:56:31;;;;;;;2.65;2.45;;;22.40;74.70;;;22.98;38.21;97805.38;10344469;28;20227;-66
2023/07/05 17:01:34;;;;;;;3.55;2.78;;;22.20;74.50;;;22.89;38.46;97814.88;10354562;28;20233;-66
2023/07/05 17:06:39;;;;;;;2.78;2.47;;;22.10;75.30;;;22.96;38.52;97813.22;10357721;28;20740;-66
2023/07/05 17:11:44;;;;;;;2.75;2.55;;;22.10;75.40;;;23.03;37.97;97816.72;10353951;28;21866;-65
2023/07/05 17:16:49;;;;;;;3.72;2.40;;;22.10;74.90;;;22.78;38.24;97819.13;10352327;28;20222;-65
2023/07/05 17:21:53;;;;;;;2.50;2.30;;;21.90;74.80;;;22.53;39.86;97823.25;10356910;28;20229;-65
2023/07/05 17:26:56;;;;;;;3.75;2.42;;;21.70;77.90;;;22.40;39.84;97830.06;10348679;28;20289;-66
2023/07/05 17:32:00;;;;;;;3.13;2.60;;;21.60;77.10;;;22.12;39.90;97830.59;10342996;28;20226;-65
2023/07/05 17:37:06;;;;;;;3.78;2.38;;;21.20;77.00;;;21.91;40.53;97832.09;10343840;28;20238;-64
2023/07/05 17:42:09;;;;;;;2.85;2.65;;;21.10;78.20;;;21.86;40.47;97832.91;10356403;28;20365;-65
2023/07/05 17:47:13;;;;;;;2.92;2.53;;;21.00;78.00;;;21.84;40.07;97839.84;10346733;28;20262;-65
2023/07/05 17:52:18;;;;;;;2.55;2.35;;;20.90;77.40;;;21.70;40.95;97843.13;10352317;28;20242;-66
2023/07/05 17:57:21;;;;;;;3.13;2.55;;;20.90;78.50;;;21.55;41.21;97841.22;10352201;28;20245;-65
2023/07/05 18:02:25;;;;;;;3.92;2.42;;;20.80;78.80;;;21.49;41.88;97854.16;10354090;28;20227;-64
2023/07/05 18:07:29;;;;;;;3.47;2.30;;;20.60;80.00;;;21.34;42.05;97865.16;10358037;28;20520;-65
2023/07/05 18:12:32;;;;;;;2.70;2.50;;;20.50;80.00;;;21.29;41.91;97865.94;10359223;28;20228;-64
2023/07/05 18:17:35;;;;;;;4.70;2.60;;;20.40;79.60;;;21.24;42.65;97865.88;10352363;28;20698;-67
2023/07/05 18:22:43;;;;;;;4.82;2.85;;;20.30;81.20;;;21.02;42.89;97874.19;10356751;28;20272;-66
2023/07/05 18:27:46;;;;;;;4.97;2.80;;;20.20;82.30;;;21.06;42.64;97870.78;10346705;28;20628;-66
2023/07/05 18:32:50;;;;;;;2.30;2.10;;;20.10;81.10;;;20.87;43.00;97880.03;10350672;28;20241;-64
2023/07/05 18:37:54;;;;;;;2.40;2.20;;;20.00;81.70;;;20.77;43.37;97880.69;10354007;28;20372;-67
2023/07/05 18:42:57;;;;;;;2.90;2.38;;;19.90;82.00;;;20.62;43.90;97889.97;10354017;28;20584;-64
2023/07/05 18:48:03;;;;;;;3.10;2.30;;;19.80;83.10;;;20.55;45.50;97889.88;10352361;28;20237;-64
2023/07/05 18:53:10;;;;;;;3.28;2.38;;;19.70;87.00;;;20.40;45.90;97890.41;10347479;28;20548;-64
2023/07/05 18:58:15;;;;;;;2.38;2.17;;;19.50;86.30;;;20.28;45.38;97895.38;10349922;28;20613;-63
2023/07/05 19:03:18;;;;;;;2.70;2.50;;;19.40;84.50;;;20.14;46.35;97898.56;10346096;28;20222;-67
2023/07/05 19:08:25;;;;;;;2.17;2.00;;;19.20;86.10;;;19.98;46.85;97909.50;10347249;28;20230;-68
2023/07/05 19:13:29;;;;;;;3.28;2.55;;;19.10;88.30;;;19.80;47.81;97913.44;10354633;28;20225;-63
2023/07/05 19:18:33;;;;;;;2.35;2.15;;;18.90;89.10;;;19.66;48.10;97922.66;10357217;28;20226;-66
2023/07/05 19:23:39;;;;;;;3.33;2.50;;;18.70;90.30;;;19.54;47.77;97924.91;10360740;28;20226;-64
2023/07/05 19:28:44;;;;;;;3.50;2.38;;;18.60;88.90;;;19.36;48.63;97926.25;10356455;28;20241;-64
2023/07/05 19:33:49;;;;;;;2.83;2.55;;;18.50;91.10;;;19.18;49.66;97941.38;10365648;28;20237;-66
2023/07/05 19:38:56;;;;;;;2.60;2.40;;;18.30;91.10;;;19.09;52.58;97947.19;10367584;28;21009;-64
2023/07/05 19:43:59;;;;;;;3.17;2.70;;;18.10;93.80;;;18.95;53.91;97952.88;10364599;28;21143;-64
2023/07/05 19:49:04;;;;;;;3.95;2.67;;;18.00;94.30;;;18.85;53.89;97964.69;10364046;28;20761;-65
2023/07/05 19:54:09;;;;;;;3.78;2.40;;;17.90;94.60;;;18.70;53.89;97965.16;10362587;28;20226;-65
2023/07/05 19:59:13;;;;;;;4.65;3.15;;;17.80;94.50;;;18.57;54.09;97965.63;10362453;28;20230;-66
2023/07/05 20:04:16;;;;;;;5.78;5.13;;;17.60;94.80;;;18.54;55.21;97973.31;10360534;28;20234;-64
2023/07/05 20:09:21;;;;;;;4.43;4.03;;;17.60;96.00;;;18.35;56.30;97980.59;10355268;28;20725;-64
2023/07/05 20:14:24;;;;;;;4.47;3.60;;;17.40;97.50;;;18.24;59.71;97980.28;10357324;28;20309;-64
2023/07/05 20:19:28;;;;;;;3.55;3.25;;;17.30;99.40;;;18.13;60.02;97975.63;10364660;28;20663;-66
2023/07/05 20:24:33;;;;;;;3.20;2.90;;;17.20;99.90;;;18.01;59.75;97978.72;10358135;28;20230;-66
2023/07/05 20:29:37;;;;;;;2.88;2.67;;;17.10;99.10;;;17.87;60.76;97992.97;10364273;28;20227;-65
2023/07/05 20:34:40;;;;;;;3.45;2.65;;;16.80;99.90;;;17.69;61.10;97988.94;10359212;28;20672;-65
2023/07/05 20:39:44;;;;;;;3.22;3.03;;;16.70;99.90;;;17.57;61.03;97998.91;10361548;28;20278;-65
2023/07/05 20:44:47;;;;;;;3.78;3.05;;;16.70;99.90;;;17.54;62.28;98009.13;10359407;28;20218;-65
2023/07/05 20:49:50;;;;;;;3.63;3.33;;;16.60;99.90;;;17.45;63.52;98006.25;10359238;28;20730;-65
2023/07/05 20:54:55;;;;;;;3.90;3.60;;;16.50;99.90;;;17.39;65.16;98009.50;10357280;28;20705;-65
2023/07/05 20:59:58;;;;;;;3.40;3.10;;;16.40;99.90;;;17.32;65.46;98012.75;10361159;28;20798;-65
2023/07/05 21:05:03;;;;;;;3.25;2.95;;;16.30;99.90;;;17.04;65.65;98014.38;10358813;28;20315;-65
2023/07/05 21:10:09;;;;;;;3.85;3.10;;;16.10;99.90;;;16.78;65.62;98028.09;10357496;28;20230;-65